createdAt,value
2023-05-12T00:00:13.154Z,38.13
2023-05-12T00:01:15.409Z,39.33
2023-05-12T00:02:17.772Z,42.92
2023-05-12T00:03:19.958Z,51.70
2023-05-12T00:04:22.162Z,41.75
2023-05-12T00:05:26.085Z,47.22
2023-05-12T00:06:28.265Z,46.88
2023-05-12T00:07:30.385Z,48.67
2023-05-12T00:08:32.548Z,43.33
2023-05-12T00:09:34.701Z,39.42
2023-05-12T00:10:36.903Z,44.22
2023-05-12T00:11:39.126Z,44.38
2023-05-12T00:12:41.420Z,39.22
2023-05-12T00:13:44.080Z,47.97
2023-05-12T00:14:46.274Z,40.47
2023-05-12T00:15:48.356Z,51.97
2023-05-12T00:16:52.106Z,40.47
2023-05-12T00:17:54.501Z,46.35
2023-05-12T00:18:56.672Z,47.25
2023-05-12T00:19:58.849Z,48.88
2023-05-12T00:21:02.418Z,44.65
2023-05-12T00:22:04.852Z,45.70
2023-05-12T00:23:07.365Z,49.45
2023-05-12T00:24:09.665Z,48.00
2023-05-12T00:25:11.838Z,48.88
2023-05-12T00:26:14.022Z,51.17
2023-05-12T00:27:16.137Z,48.10
2023-05-12T00:28:18.969Z,45.80
2023-05-12T00:29:21.083Z,46.50
2023-05-12T00:30:23.304Z,45.08
2023-05-12T00:31:25.668Z,50.55
2023-05-12T00:32:27.932Z,46.78
2023-05-12T00:33:30.271Z,53.33
2023-05-12T00:34:32.417Z,48.88
2023-05-12T00:35:34.543Z,54.13
2023-05-12T00:36:38.105Z,50.83
2023-05-12T00:37:40.201Z,46.83
2023-05-12T00:38:42.365Z,54.70
2023-05-12T00:39:44.502Z,54.40
2023-05-12T00:40:46.619Z,56.03
2023-05-12T00:41:50.193Z,57.83
2023-05-12T00:42:52.331Z,57.03
2023-05-12T00:43:54.450Z,51.50
2023-05-12T00:44:56.552Z,55.38
2023-05-12T00:45:59.116Z,53.85
2023-05-12T00:47:01.336Z,54.30
2023-05-12T00:48:05.167Z,54.70
2023-05-12T00:49:07.951Z,53.80
2023-05-12T00:50:10.542Z,52.85
2023-05-12T00:51:13.411Z,56.90
2023-05-12T00:52:17.030Z,57.17
2023-05-12T00:53:19.182Z,51.03
2023-05-12T00:54:21.462Z,55.00
2023-05-12T00:55:23.590Z,58.28
2023-05-12T00:56:25.948Z,52.88
2023-05-12T00:57:28.263Z,57.83
2023-05-12T00:58:30.550Z,58.67
2023-05-12T00:59:32.811Z,59.92
2023-05-12T01:00:34.906Z,54.17
2023-05-12T01:01:37.826Z,49.10
2023-05-12T01:02:40.535Z,52.15
2023-05-12T01:03:43.358Z,54.97
2023-05-12T01:04:45.655Z,57.55
2023-05-12T01:05:52.980Z,51.20
2023-05-12T01:06:58.250Z,55.88
2023-05-12T01:08:03.292Z,56.35
2023-05-12T01:09:05.903Z,55.85
2023-05-12T01:10:18.747Z,63.35
2023-05-12T01:11:22.790Z,60.67
2023-05-12T01:12:26.172Z,59.30
2023-05-12T01:13:29.029Z,55.13
2023-05-12T01:14:31.303Z,52.85
2023-05-12T01:15:33.852Z,49.30
2023-05-12T01:16:43.121Z,45.08
2023-05-12T01:17:50.890Z,49.25
2023-05-12T01:18:56.092Z,45.28
2023-05-12T01:20:00.781Z,50.00
2023-05-12T01:21:04.336Z,47.60
2023-05-12T01:22:07.119Z,49.13
2023-05-12T01:23:11.427Z,43.25
2023-05-12T01:24:16.366Z,50.40
2023-05-12T01:25:22.476Z,55.60
2023-05-12T01:26:26.524Z,52.50
2023-05-12T01:27:30.355Z,56.15
2023-05-12T01:28:32.978Z,54.33
2023-05-12T01:29:36.020Z,56.60
2023-05-12T01:30:41.788Z,60.83
2023-05-12T01:32:54.684Z,65.97
2023-05-12T01:33:56.884Z,57.13
2023-05-12T01:34:59.044Z,63.25
2023-05-12T01:36:01.235Z,58.97
2023-05-12T01:37:03.482Z,52.33
2023-05-12T01:38:05.610Z,57.67
2023-05-12T01:39:07.732Z,55.15
2023-05-12T01:40:10.358Z,56.75
2023-05-12T01:41:12.495Z,56.88
2023-05-12T01:42:16.032Z,58.45
2023-05-12T01:43:18.950Z,58.53
2023-05-12T01:44:22.437Z,60.40
2023-05-12T01:45:24.565Z,60.72
2023-05-12T01:46:26.726Z,58.90
2023-05-12T01:47:28.887Z,60.42
2023-05-12T01:48:31.196Z,60.67
2023-05-12T01:49:33.327Z,58.65
2023-05-12T01:50:35.975Z,63.47
2023-05-12T01:51:38.125Z,58.92
2023-05-12T01:52:40.638Z,60.35
2023-05-12T01:53:42.714Z,66.53
2023-05-12T01:54:44.922Z,58.55
2023-05-12T01:55:47.105Z,57.70
2023-05-12T01:56:49.287Z,58.35
2023-05-12T01:57:52.770Z,62.05
2023-05-12T01:58:55.212Z,55.90
2023-05-12T01:59:57.490Z,57.92
2023-05-12T02:00:59.969Z,66.38
2023-05-12T02:02:02.137Z,63.65
2023-05-12T02:03:04.384Z,62.25
2023-05-12T02:04:08.919Z,61.70
2023-05-12T02:05:11.632Z,51.40
2023-05-12T02:06:13.879Z,50.15
2023-05-12T02:07:15.993Z,45.55
2023-05-12T02:08:18.142Z,49.22
2023-05-12T02:09:22.574Z,46.78
2023-05-12T02:10:24.724Z,42.38
2023-05-12T02:11:26.869Z,42.55
2023-05-12T02:12:28.993Z,41.80
2023-05-12T02:13:32.575Z,44.53
2023-05-12T02:14:34.732Z,36.10
2023-05-12T02:15:36.875Z,35.03
2023-05-12T02:16:39.101Z,35.60
2023-05-12T02:17:41.299Z,47.95
2023-05-12T02:18:43.480Z,38.22
2023-05-12T02:19:45.593Z,54.75
2023-05-12T02:20:47.676Z,36.22
2023-05-12T02:21:49.797Z,37.50
2023-05-12T02:22:51.882Z,44.03
2023-05-12T02:23:54.062Z,39.95
2023-05-12T02:24:56.136Z,37.70
2023-05-12T02:25:58.273Z,38.03
2023-05-12T02:27:00.507Z,37.22
2023-05-12T02:28:02.728Z,42.85
2023-05-12T02:29:06.211Z,46.30
2023-05-12T02:30:09.228Z,46.83
2023-05-12T02:31:11.330Z,45.78
2023-05-12T02:32:13.577Z,45.83
2023-05-12T02:33:15.983Z,51.40
2023-05-12T02:34:18.115Z,57.83
2023-05-12T02:35:21.445Z,41.67
2023-05-12T02:36:23.585Z,42.80
2023-05-12T02:37:25.791Z,49.05
2023-05-12T02:38:28.456Z,54.75
2023-05-12T02:39:30.649Z,48.75
2023-05-12T02:40:32.867Z,57.08
2023-05-12T02:41:34.979Z,67.22
2023-05-12T02:42:38.558Z,88.82
2023-05-12T02:43:40.760Z,100.38
2023-05-12T02:44:44.272Z,102.22
2023-05-12T02:45:46.543Z,84.60
2023-05-12T02:46:48.646Z,103.25
2023-05-12T02:47:51.050Z,77.97
2023-05-12T02:48:53.508Z,77.95
2023-05-12T02:49:56.951Z,79.70
2023-05-12T02:50:59.166Z,79.60
2023-05-12T02:52:01.325Z,76.05
2023-05-12T02:53:03.532Z,83.05
2023-05-12T02:54:06.331Z,78.75
2023-05-12T02:55:08.999Z,74.07
2023-05-12T02:56:11.171Z,65.78
2023-05-12T02:57:13.299Z,84.68
2023-05-12T02:58:15.827Z,78.80
2023-05-12T02:59:18.548Z,71.70
2023-05-12T03:00:22.255Z,70.07
2023-05-12T03:01:24.439Z,74.97
2023-05-12T03:02:26.735Z,70.00
2023-05-12T03:03:29.306Z,78.97
2023-05-12T03:04:33.161Z,75.75
2023-05-12T03:05:35.305Z,72.32
2023-05-12T03:06:37.448Z,75.00
2023-05-12T03:07:39.690Z,72.32
2023-05-12T03:08:41.874Z,71.32
2023-05-12T03:09:44.150Z,79.25
2023-05-12T03:10:46.334Z,75.22
2023-05-12T03:11:48.426Z,72.82
2023-05-12T03:12:50.632Z,72.45
2023-05-12T03:13:52.769Z,64.60
2023-05-12T03:14:55.097Z,70.05
2023-05-12T03:16:01.656Z,62.78
2023-05-12T03:17:04.369Z,67.05
2023-05-12T03:18:06.807Z,62.45
2023-05-12T03:19:09.253Z,58.88
2023-05-12T03:20:12.297Z,64.72
2023-05-12T03:21:14.452Z,58.30
2023-05-12T03:22:16.819Z,63.33
2023-05-12T03:23:18.934Z,61.92
2023-05-12T03:24:21.205Z,63.92
2023-05-12T03:25:23.447Z,61.00
2023-05-12T03:26:25.615Z,61.75
2023-05-12T03:27:27.759Z,62.13
2023-05-12T03:28:29.901Z,54.50
2023-05-12T03:29:32.202Z,52.38
2023-05-12T03:30:34.304Z,55.38
2023-05-12T03:31:37.970Z,54.70
2023-05-12T03:32:40.920Z,51.22
2023-05-12T03:33:43.061Z,53.40
2023-05-12T03:34:45.158Z,49.00
2023-05-12T03:35:47.793Z,61.05
2023-05-12T03:36:49.932Z,52.47
2023-05-12T03:37:51.999Z,54.33
2023-05-12T03:38:54.203Z,50.33
2023-05-12T03:39:56.412Z,51.78
2023-05-12T03:41:04.386Z,48.50
2023-05-12T03:42:07.133Z,53.92
2023-05-12T03:43:09.274Z,49.25
2023-05-12T03:44:12.403Z,48.47
2023-05-12T03:45:14.594Z,56.05
2023-05-12T03:46:16.906Z,51.30
2023-05-12T03:47:20.677Z,50.47
2023-05-12T03:48:22.965Z,52.65
2023-05-12T03:49:25.098Z,48.78
2023-05-12T03:50:27.223Z,51.05
2023-05-12T03:51:29.447Z,47.95
2023-05-12T03:52:31.609Z,54.70
2023-05-12T03:53:33.777Z,55.40
2023-05-12T03:54:37.823Z,56.88
2023-05-12T03:55:41.689Z,60.47
2023-05-12T03:56:43.770Z,64.95
2023-05-12T03:57:47.799Z,55.70
2023-05-12T03:58:49.940Z,52.22
2023-05-12T03:59:52.084Z,53.65
2023-05-12T04:00:57.133Z,60.28
2023-05-12T04:01:59.346Z,56.17
2023-05-12T04:03:02.975Z,52.13
2023-05-12T04:04:05.481Z,54.03
2023-05-12T04:05:10.156Z,68.72
2023-05-12T04:06:12.391Z,63.15
2023-05-12T04:07:14.646Z,57.97
2023-05-12T04:08:16.851Z,56.13
2023-05-12T04:09:20.132Z,51.00
2023-05-12T04:10:22.449Z,57.22
2023-05-12T04:11:24.686Z,56.45
2023-05-12T04:12:26.807Z,56.30
2023-05-12T04:13:31.144Z,54.28
2023-05-12T04:14:42.416Z,58.47
2023-05-12T04:15:45.514Z,49.83
2023-05-12T04:16:48.521Z,52.65
2023-05-12T04:17:51.172Z,60.08
2023-05-12T04:18:54.971Z,59.97
2023-05-12T04:19:57.157Z,57.65
2023-05-12T04:20:59.503Z,66.28
2023-05-12T04:22:01.761Z,65.38
2023-05-12T04:23:03.918Z,63.20
2023-05-12T04:24:06.357Z,54.30
2023-05-12T04:25:10.039Z,63.03
2023-05-12T04:26:12.187Z,62.22
2023-05-12T04:27:14.926Z,59.58
2023-05-12T04:28:17.091Z,60.83
2023-05-12T04:29:19.305Z,58.30
2023-05-12T04:30:22.124Z,63.85
2023-05-12T04:31:24.349Z,57.25
2023-05-12T04:32:26.528Z,56.83
2023-05-12T04:33:28.681Z,60.25
2023-05-12T04:34:32.686Z,69.05
2023-05-12T04:35:35.885Z,62.95
2023-05-12T04:36:38.091Z,62.90
2023-05-12T04:37:40.486Z,53.30
2023-05-12T04:38:42.953Z,61.10
2023-05-12T04:39:45.053Z,60.13
2023-05-12T04:40:47.226Z,64.80
2023-05-12T04:41:49.997Z,50.10
2023-05-12T04:42:53.225Z,57.80
2023-05-12T04:44:10.056Z,70.20
2023-05-12T04:45:12.605Z,59.38
2023-05-12T04:46:14.768Z,62.17
2023-05-12T04:47:16.912Z,67.25
2023-05-12T04:48:19.216Z,63.70
2023-05-12T04:49:21.388Z,65.32
2023-05-12T04:50:25.116Z,56.22
2023-05-12T04:51:27.241Z,60.53
2023-05-12T04:52:29.411Z,57.22
2023-05-12T04:53:34.781Z,52.08
2023-05-12T04:54:37.080Z,65.15
2023-05-12T04:55:39.212Z,49.25
2023-05-12T04:56:41.932Z,59.45
2023-05-12T04:57:44.331Z,49.63
2023-05-12T04:58:46.986Z,48.72
2023-05-12T04:59:49.166Z,50.70
2023-05-12T05:00:54.308Z,57.70
2023-05-12T05:01:56.489Z,61.15
2023-05-12T05:02:59.140Z,50.00
2023-05-12T05:04:01.383Z,51.13
2023-05-12T05:05:03.725Z,50.15
2023-05-12T05:06:07.711Z,44.88
2023-05-12T05:07:10.012Z,44.90
2023-05-12T05:08:12.387Z,57.38
2023-05-12T05:09:14.611Z,48.17
2023-05-12T05:10:16.850Z,51.47
2023-05-12T05:11:18.972Z,50.50
2023-05-12T05:12:21.056Z,45.72
2023-05-12T05:13:26.240Z,43.85
2023-05-12T05:14:28.436Z,50.63
2023-05-12T05:15:30.959Z,41.40
2023-05-12T05:16:33.249Z,49.03
2023-05-12T05:17:35.705Z,45.08
2023-05-12T05:18:37.996Z,61.00
2023-05-12T05:19:53.552Z,44.85
2023-05-12T05:20:59.081Z,45.17
2023-05-12T05:22:03.420Z,40.10
2023-05-12T05:23:05.880Z,47.65
2023-05-12T05:24:09.229Z,38.08
2023-05-12T05:25:11.782Z,47.00
2023-05-12T05:26:14.196Z,27.10
2023-05-12T05:27:16.942Z,36.92
2023-05-12T05:28:19.412Z,40.22
2023-05-12T05:29:21.515Z,31.90
2023-05-12T05:30:23.673Z,33.78
2023-05-12T05:31:28.722Z,29.05
2023-05-12T05:32:31.250Z,37.92
2023-05-12T05:33:33.536Z,31.38
2023-05-12T05:34:35.783Z,33.35
2023-05-12T05:35:38.011Z,33.75
2023-05-12T05:36:41.169Z,26.58
2023-05-12T05:37:44.743Z,25.30
2023-05-12T05:38:46.893Z,33.88
2023-05-12T05:39:48.989Z,28.38
2023-05-12T05:40:54.202Z,26.70
2023-05-12T05:41:56.565Z,29.48
2023-05-12T05:42:58.821Z,31.83
2023-05-12T05:44:01.618Z,27.17
2023-05-12T05:45:04.216Z,23.27
2023-05-12T05:46:06.867Z,23.05
2023-05-12T05:47:09.130Z,31.58
2023-05-12T05:48:11.357Z,20.13
2023-05-12T05:49:13.738Z,20.92
2023-05-12T05:50:16.133Z,22.10
2023-05-12T05:51:18.554Z,16.45
2023-05-12T05:52:20.844Z,20.35
2023-05-12T05:53:24.385Z,16.63
2023-05-12T05:54:26.601Z,18.08
2023-05-12T05:55:28.805Z,20.08
2023-05-12T05:56:32.770Z,12.10
2023-05-12T05:57:34.955Z,13.45
2023-05-12T05:58:37.688Z,25.95
2023-05-12T05:59:39.800Z,13.80
2023-05-12T06:00:42.636Z,20.05
2023-05-12T06:01:45.616Z,22.83
2023-05-12T06:02:47.939Z,16.00
2023-05-12T06:03:50.193Z,16.42
2023-05-12T06:04:52.602Z,15.80
2023-05-12T06:05:54.783Z,20.25
2023-05-12T06:06:56.991Z,18.40
2023-05-12T06:07:59.478Z,20.52
2023-05-12T06:09:03.375Z,14.80
2023-05-12T06:10:07.697Z,13.73
2023-05-12T06:11:10.020Z,17.30
2023-05-12T06:12:12.680Z,15.85
2023-05-12T06:13:14.861Z,11.00
2023-05-12T06:14:17.280Z,15.15
2023-05-12T06:15:19.593Z,14.57
2023-05-12T06:16:22.128Z,24.60
2023-05-12T06:17:24.431Z,10.27
2023-05-12T06:18:26.722Z,10.75
2023-05-12T06:19:28.876Z,15.48
2023-05-12T06:20:32.439Z,13.35
2023-05-12T06:21:34.614Z,10.85
2023-05-12T06:22:36.794Z,13.63
2023-05-12T06:23:39.026Z,20.13
2023-05-12T06:24:42.657Z,10.45
2023-05-12T06:25:45.779Z,22.73
2023-05-12T06:26:48.897Z,14.13
2023-05-12T06:27:51.886Z,21.30
2023-05-12T06:28:54.027Z,15.32
2023-05-12T06:29:56.419Z,11.98
2023-05-12T06:30:59.860Z,13.00
2023-05-12T06:32:02.145Z,16.10
2023-05-12T06:33:04.513Z,14.63
2023-05-12T06:34:07.915Z,12.93
2023-05-12T06:35:10.706Z,15.57
2023-05-12T06:36:15.782Z,10.93
2023-05-12T06:37:18.481Z,10.20
2023-05-12T06:38:20.656Z,14.43
2023-05-12T06:39:22.917Z,12.07
2023-05-12T06:40:26.632Z,12.10
2023-05-12T06:41:29.419Z,21.67
2023-05-12T06:42:31.571Z,16.00
2023-05-12T06:43:33.775Z,10.88
2023-05-12T06:44:35.880Z,7.85
2023-05-12T06:45:38.203Z,14.07
2023-05-12T06:46:40.593Z,10.93
2023-05-12T06:47:42.794Z,17.52
2023-05-12T06:48:47.824Z,10.82
2023-05-12T06:49:50.527Z,12.00
2023-05-12T06:50:52.788Z,12.05
2023-05-12T06:51:55.125Z,14.80
2023-05-12T06:52:57.260Z,8.40
2023-05-12T06:53:59.434Z,6.60
2023-05-12T06:55:01.867Z,11.90
2023-05-12T06:56:05.912Z,4.63
2023-05-12T06:57:08.179Z,4.15
2023-05-12T06:58:10.273Z,13.35
2023-05-12T06:59:12.640Z,10.75
2023-05-12T07:00:15.639Z,12.40
2023-05-12T07:01:18.359Z,11.68
2023-05-12T07:02:20.711Z,20.35
2023-05-12T07:03:23.147Z,17.90
2023-05-12T07:04:26.868Z,11.85
2023-05-12T07:05:29.018Z,17.27
2023-05-12T07:06:32.189Z,10.05
2023-05-12T07:07:35.803Z,15.63
2023-05-12T07:08:37.953Z,7.45
2023-05-12T07:09:42.351Z,11.32
2023-05-12T07:10:44.452Z,8.68
2023-05-12T07:11:48.246Z,18.85
2023-05-12T07:12:50.426Z,11.35
2023-05-12T07:13:52.755Z,18.38
2023-05-12T07:14:55.140Z,18.50
2023-05-12T07:15:59.937Z,11.52
2023-05-12T07:17:03.023Z,12.77
2023-05-12T07:18:05.379Z,8.98
2023-05-12T07:19:09.105Z,17.10
2023-05-12T07:20:11.982Z,12.35
2023-05-12T07:21:14.549Z,18.30
2023-05-12T07:22:16.981Z,18.40
2023-05-12T07:23:19.230Z,18.80
2023-05-12T07:24:21.675Z,17.08
2023-05-12T07:25:24.151Z,20.92
2023-05-12T07:26:28.774Z,18.98
2023-05-12T07:27:32.456Z,18.33
2023-05-12T07:28:36.722Z,19.08
2023-05-12T07:29:38.854Z,23.50
2023-05-12T07:30:41.116Z,16.38
2023-05-12T07:31:43.347Z,19.65
2023-05-12T07:32:46.291Z,12.18
2023-05-12T07:33:48.849Z,19.08
2023-05-12T07:34:50.975Z,17.75
2023-05-12T07:35:53.149Z,15.98
2023-05-12T07:36:55.691Z,9.85
2023-05-12T07:37:57.943Z,15.43
2023-05-12T07:39:00.139Z,11.18
2023-05-12T07:40:02.338Z,12.27
2023-05-12T07:41:04.723Z,8.25
2023-05-12T07:42:07.124Z,7.35
2023-05-12T07:43:10.732Z,10.95
2023-05-12T07:44:12.818Z,9.90
2023-05-12T07:45:16.745Z,9.10
2023-05-12T07:46:18.927Z,12.60
2023-05-12T07:47:21.040Z,8.77
2023-05-12T07:48:23.235Z,11.40
2023-05-12T07:49:25.495Z,11.82
2023-05-12T07:50:27.602Z,13.00
2023-05-12T07:51:29.768Z,10.10
2023-05-12T07:52:32.011Z,9.63
2023-05-12T07:53:34.343Z,9.95
2023-05-12T07:54:36.653Z,8.52
2023-05-12T07:55:38.967Z,11.23
2023-05-12T07:56:41.105Z,11.55
2023-05-12T07:57:43.733Z,11.63
2023-05-12T07:58:47.763Z,14.82
2023-05-12T07:59:49.952Z,16.10
2023-05-12T08:01:03.726Z,10.45
2023-05-12T08:02:06.649Z,12.88
2023-05-12T08:03:09.333Z,12.45
2023-05-12T08:04:12.058Z,10.90
2023-05-12T08:05:14.539Z,16.00
2023-05-12T08:06:16.758Z,8.65
2023-05-12T08:07:18.976Z,12.02
2023-05-12T08:08:21.222Z,9.13
2023-05-12T08:09:23.379Z,20.77
2023-05-12T08:10:29.661Z,11.70
2023-05-12T08:11:31.933Z,7.47
2023-05-12T08:12:34.307Z,18.67
2023-05-12T08:13:37.206Z,10.43
2023-05-12T08:14:41.050Z,9.52
2023-05-12T08:15:43.189Z,10.63
2023-05-12T08:16:46.569Z,11.60
2023-05-12T08:17:48.888Z,11.23
2023-05-12T08:18:51.090Z,7.18
2023-05-12T08:19:53.281Z,18.00
2023-05-12T08:20:55.723Z,10.90
2023-05-12T08:21:57.887Z,11.13
2023-05-12T08:23:00.061Z,12.85
2023-05-12T08:24:04.719Z,14.40
2023-05-12T08:25:16.164Z,9.45
2023-05-12T08:26:19.245Z,8.73
2023-05-12T08:27:21.506Z,8.18
2023-05-12T08:28:23.835Z,10.57
2023-05-12T08:29:26.080Z,14.43
2023-05-12T08:30:29.744Z,14.32
2023-05-12T08:31:32.566Z,5.10
2023-05-12T08:32:35.550Z,11.82
2023-05-12T08:33:38.000Z,7.40
2023-05-12T08:34:40.417Z,15.57
2023-05-12T08:35:42.846Z,13.55
2023-05-12T08:36:45.109Z,19.95
2023-05-12T08:37:47.513Z,10.30
2023-05-12T08:38:49.674Z,9.02
2023-05-12T08:39:52.567Z,7.75
2023-05-12T08:41:02.595Z,11.85
2023-05-12T08:42:14.170Z,5.00
2023-05-12T08:43:30.776Z,15.85
2023-05-12T08:44:33.775Z,11.57
2023-05-12T08:45:39.011Z,13.70
2023-05-12T08:46:42.136Z,9.98
2023-05-12T08:47:46.190Z,12.23
2023-05-12T08:48:52.281Z,10.10
2023-05-12T08:50:00.194Z,7.97
2023-05-12T08:51:07.030Z,12.02
2023-05-12T08:52:11.370Z,10.65
2023-05-12T08:53:16.282Z,13.50
2023-05-12T08:54:21.698Z,10.70
2023-05-12T08:55:30.871Z,6.55
2023-05-12T08:57:45.543Z,13.73
2023-05-12T08:58:48.586Z,9.85
2023-05-12T08:59:54.814Z,8.77
2023-05-12T09:01:00.963Z,13.80
2023-05-12T09:02:08.184Z,5.85
2023-05-12T09:03:15.389Z,8.68
2023-05-12T09:04:18.277Z,9.45
2023-05-12T09:05:21.101Z,12.48
2023-05-12T09:06:23.980Z,5.57
2023-05-12T09:07:27.338Z,5.60
2023-05-12T09:08:33.126Z,5.50
2023-05-12T09:09:50.051Z,8.13
2023-05-12T09:10:55.070Z,9.88
2023-05-12T09:11:59.168Z,7.85
2023-05-12T09:13:04.490Z,14.27
2023-05-12T09:14:09.665Z,10.80
2023-05-12T09:15:18.977Z,6.55
2023-05-12T09:16:27.400Z,6.95
2023-05-12T09:17:29.549Z,8.98
2023-05-12T09:18:46.058Z,10.63
2023-05-12T09:19:48.276Z,12.77
2023-05-12T09:20:50.477Z,10.27
2023-05-12T09:21:53.157Z,9.90
2023-05-12T09:22:58.223Z,7.80
2023-05-12T09:24:03.400Z,8.88
2023-05-12T09:25:17.110Z,7.72
2023-05-12T09:26:19.584Z,8.75
2023-05-12T09:27:25.990Z,7.95
2023-05-12T09:28:36.115Z,10.40
2023-05-12T09:29:58.502Z,10.40
2023-05-12T09:31:01.054Z,13.75
2023-05-12T09:32:04.828Z,12.85
2023-05-12T09:33:08.984Z,8.45
2023-05-12T09:34:11.243Z,13.80
2023-05-12T09:35:13.600Z,8.30
2023-05-12T09:36:18.397Z,11.30
2023-05-12T09:37:20.885Z,10.90
2023-05-12T09:38:23.058Z,9.55
2023-05-12T09:39:25.763Z,11.93
2023-05-12T09:40:30.163Z,10.77
2023-05-12T09:41:35.135Z,13.85
2023-05-12T09:42:37.404Z,8.20
2023-05-12T09:43:46.073Z,4.57
2023-05-12T09:44:48.556Z,7.93
2023-05-12T09:45:51.758Z,11.88
2023-05-12T09:46:54.025Z,10.80
2023-05-12T09:48:02.852Z,11.80
2023-05-12T09:49:05.098Z,7.05
2023-05-12T09:50:10.302Z,6.07
2023-05-12T09:51:12.778Z,5.97
2023-05-12T09:52:15.081Z,11.52
2023-05-12T09:53:18.313Z,9.23
2023-05-12T09:54:27.606Z,6.20
2023-05-12T09:55:29.745Z,8.80
2023-05-12T09:56:32.768Z,9.40
2023-05-12T09:57:39.875Z,6.25
2023-05-12T09:58:46.474Z,4.88
2023-05-12T09:59:49.673Z,8.23
2023-05-12T10:02:00.962Z,5.30
2023-05-12T10:03:09.416Z,10.32
2023-05-12T10:04:13.058Z,7.40
2023-05-12T10:05:17.856Z,6.82
2023-05-12T10:06:23.118Z,6.13
2023-05-12T10:07:28.262Z,11.73
2023-05-12T10:08:34.237Z,9.88
2023-05-12T10:09:39.479Z,7.30
2023-05-12T10:10:43.296Z,11.38
2023-05-12T10:11:46.872Z,5.60
2023-05-12T10:12:49.563Z,11.38
2023-05-12T10:13:53.316Z,8.38
2023-05-12T10:14:56.520Z,9.35
2023-05-12T10:16:00.247Z,12.57
2023-05-12T10:17:02.734Z,9.98
2023-05-12T10:18:08.028Z,7.07
2023-05-12T10:19:11.250Z,8.38
2023-05-12T10:20:15.295Z,6.30
2023-05-12T10:21:17.516Z,7.55
2023-05-12T10:22:20.518Z,6.43
2023-05-12T10:23:23.511Z,8.68
2023-05-12T10:24:27.491Z,6.85
2023-05-12T10:25:30.758Z,11.88
2023-05-12T10:26:35.015Z,11.38
2023-05-12T10:27:38.039Z,10.95
2023-05-12T10:28:41.167Z,9.27
2023-05-12T10:29:44.014Z,4.90
2023-05-12T10:30:48.491Z,4.78
2023-05-12T10:31:51.168Z,8.35
2023-05-12T10:32:53.686Z,8.40
2023-05-12T10:34:00.912Z,7.05
2023-05-12T10:35:10.244Z,11.27
2023-05-12T10:36:19.518Z,8.05
2023-05-12T10:37:23.565Z,9.45
2023-05-12T10:38:25.885Z,9.32
2023-05-12T10:39:33.062Z,9.43
2023-05-12T10:40:35.556Z,6.38
2023-05-12T10:41:37.872Z,7.15
2023-05-12T10:42:42.598Z,11.63
2023-05-12T10:43:49.696Z,6.35
2023-05-12T10:44:52.843Z,6.28
2023-05-12T10:46:08.849Z,7.03
2023-05-12T10:47:16.730Z,16.17
2023-05-12T10:48:18.963Z,7.78
2023-05-12T10:49:33.219Z,8.18
2023-05-12T10:50:35.791Z,5.57
2023-05-12T10:51:51.297Z,10.82
2023-05-12T10:52:54.305Z,6.75
2023-05-12T10:54:01.156Z,9.25
2023-05-12T10:55:05.007Z,5.82
2023-05-12T10:56:09.055Z,6.18
2023-05-12T10:57:18.407Z,8.18
2023-05-12T10:58:21.902Z,8.90
2023-05-12T10:59:25.431Z,7.05
2023-05-12T11:00:28.951Z,12.75
2023-05-12T11:01:52.392Z,7.07
2023-05-12T11:03:10.188Z,8.70
2023-05-12T11:04:19.202Z,7.38
2023-05-12T11:05:35.087Z,11.90
2023-05-12T11:06:58.006Z,12.13
2023-05-12T11:08:11.576Z,7.53
2023-05-12T11:09:19.674Z,6.47
2023-05-12T11:10:24.363Z,5.65
2023-05-12T11:11:29.405Z,5.53
2023-05-12T11:12:33.823Z,8.40
2023-05-12T11:13:37.912Z,10.40
2023-05-12T11:14:42.209Z,8.85
2023-05-12T11:15:44.857Z,4.78
2023-05-12T11:16:47.209Z,6.50
2023-05-12T11:17:49.648Z,6.22
2023-05-12T11:19:01.851Z,5.85
2023-05-12T11:20:04.622Z,6.63
2023-05-12T11:21:12.354Z,15.77
2023-05-12T11:22:18.485Z,8.13
2023-05-12T11:23:25.556Z,5.45
2023-05-12T11:24:27.850Z,9.68
2023-05-12T11:25:30.639Z,13.07
2023-05-12T11:26:34.505Z,9.38
2023-05-12T11:27:42.383Z,10.63
2023-05-12T11:28:44.826Z,6.88
2023-05-12T11:29:59.246Z,9.82
2023-05-12T11:31:04.526Z,6.65
2023-05-12T11:32:07.534Z,5.03
2023-05-12T11:33:13.889Z,6.88
2023-05-12T11:34:17.091Z,4.15
2023-05-12T11:35:20.078Z,6.28
2023-05-12T11:36:23.950Z,8.07
2023-05-12T11:37:26.204Z,7.95
2023-05-12T11:38:28.954Z,11.88
2023-05-12T11:39:34.182Z,4.38
2023-05-12T11:40:41.342Z,5.60
2023-05-12T11:41:43.860Z,13.30
2023-05-12T11:42:52.190Z,4.95
2023-05-12T11:43:54.414Z,8.80
2023-05-12T11:44:56.635Z,8.95
2023-05-12T11:45:59.934Z,8.80
2023-05-12T11:47:03.464Z,9.05
2023-05-12T11:48:07.834Z,8.52
2023-05-12T11:49:14.577Z,9.10
2023-05-12T11:50:24.278Z,11.07
2023-05-12T11:51:27.879Z,6.43
2023-05-12T11:52:30.047Z,7.50
2023-05-12T11:53:33.090Z,5.85
2023-05-12T11:54:35.283Z,9.60
2023-05-12T11:55:37.535Z,9.50
2023-05-12T11:56:47.301Z,8.90
2023-05-12T11:58:00.210Z,7.82
2023-05-12T11:59:02.697Z,7.43
2023-05-12T12:00:10.224Z,7.68
2023-05-12T12:01:12.797Z,9.20
2023-05-12T12:02:21.703Z,8.43
2023-05-12T12:03:25.316Z,10.15
2023-05-12T12:04:35.374Z,10.48
2023-05-12T12:05:38.299Z,12.80
2023-05-12T12:06:46.100Z,6.10
2023-05-12T12:07:51.551Z,8.82
2023-05-12T12:08:55.371Z,10.38
2023-05-12T12:09:57.824Z,6.60
2023-05-12T12:11:01.986Z,7.95
2023-05-12T12:12:07.743Z,8.05
2023-05-12T12:13:09.947Z,9.77
2023-05-12T12:14:12.199Z,11.70
2023-05-12T12:15:14.342Z,8.93
2023-05-12T12:16:16.768Z,7.45
2023-05-12T12:17:19.160Z,8.85
2023-05-12T12:18:21.943Z,6.93
2023-05-12T12:19:24.892Z,8.50
2023-05-12T12:20:27.309Z,12.95
2023-05-12T12:21:29.485Z,7.55
2023-05-12T12:22:34.735Z,8.02
2023-05-12T12:23:47.647Z,7.82
2023-05-12T12:24:53.761Z,9.80
2023-05-12T12:25:55.903Z,5.40
2023-05-12T12:26:58.079Z,10.55
2023-05-12T12:28:00.168Z,8.48
2023-05-12T12:29:02.366Z,6.63
2023-05-12T12:30:05.284Z,6.78
2023-05-12T12:31:10.666Z,7.28
2023-05-12T12:32:12.928Z,10.20
2023-05-12T12:33:20.203Z,9.27
2023-05-12T12:34:22.821Z,7.57
2023-05-12T12:35:25.292Z,12.23
2023-05-12T12:36:27.434Z,11.68
2023-05-12T12:37:29.854Z,7.65
2023-05-12T12:38:35.694Z,6.45
2023-05-12T12:39:37.808Z,5.38
2023-05-12T12:40:39.920Z,10.73
2023-05-12T12:41:43.738Z,7.70
2023-05-12T12:42:48.940Z,4.70
2023-05-12T12:43:53.766Z,12.52
2023-05-12T12:44:56.004Z,33.03
2023-05-12T12:45:58.375Z,8.25
2023-05-12T12:47:00.612Z,10.82
2023-05-12T12:48:06.847Z,9.30
2023-05-12T12:49:11.936Z,10.70
2023-05-12T12:50:17.007Z,7.93
2023-05-12T12:51:19.289Z,11.90
2023-05-12T12:52:21.413Z,7.80
2023-05-12T12:53:26.973Z,28.30
2023-05-12T12:54:30.534Z,11.13
2023-05-12T12:55:32.832Z,9.25
2023-05-12T12:56:35.169Z,16.10
2023-05-12T12:57:37.341Z,10.35
2023-05-12T12:58:39.767Z,9.15
2023-05-12T12:59:41.840Z,9.13
2023-05-12T13:00:44.138Z,6.32
2023-05-12T13:01:46.438Z,34.35
2023-05-12T13:02:49.764Z,9.48
2023-05-12T13:03:52.149Z,10.43
2023-05-12T13:04:54.502Z,8.10
2023-05-12T13:05:56.660Z,10.75
2023-05-12T13:06:58.863Z,4.70
2023-05-12T13:08:01.104Z,12.68
2023-05-12T13:09:04.104Z,5.32
2023-05-12T13:10:09.409Z,9.32
2023-05-12T13:11:11.830Z,5.93
2023-05-12T13:12:13.985Z,5.85
2023-05-12T13:13:16.172Z,5.47
2023-05-12T13:14:18.293Z,5.68
2023-05-12T13:15:20.838Z,6.28
2023-05-12T13:16:23.306Z,3.30
2023-05-12T13:17:25.552Z,8.30
2023-05-12T13:18:27.894Z,7.53
2023-05-12T13:19:30.307Z,9.35
2023-05-12T13:20:32.619Z,4.43
2023-05-12T13:21:35.095Z,5.93
2023-05-12T13:22:37.348Z,6.32
2023-05-12T13:23:39.439Z,14.73
2023-05-12T13:24:41.567Z,8.02
2023-05-12T13:25:46.440Z,11.07
2023-05-12T13:26:48.741Z,9.95
2023-05-12T13:27:52.395Z,6.43
2023-05-12T13:28:54.577Z,8.10
2023-05-12T13:29:56.971Z,6.10
2023-05-12T13:30:59.178Z,5.68
2023-05-12T13:32:01.592Z,7.95
2023-05-12T13:33:05.861Z,8.90
2023-05-12T13:34:08.509Z,9.65
2023-05-12T13:35:10.794Z,25.33
2023-05-12T13:36:13.356Z,11.15
2023-05-12T13:37:15.798Z,5.13
2023-05-12T13:38:19.148Z,9.05
2023-05-12T13:39:21.371Z,7.72
2023-05-12T13:40:23.674Z,6.90
2023-05-12T13:41:27.192Z,7.57
2023-05-12T13:42:29.376Z,6.85
2023-05-12T13:43:31.625Z,9.95
2023-05-12T13:44:33.791Z,7.45
2023-05-12T13:45:35.893Z,5.78
2023-05-12T13:46:38.067Z,6.82
2023-05-12T13:47:40.512Z,4.70
2023-05-12T13:48:42.702Z,5.55
2023-05-12T13:49:44.899Z,8.05